sensor_id;sensor_type;location;lat;lon;timestamp;P1;durP1;ratioP1;P2;durP2;ratioP2
49860;SDS011;35761;48.826;9.238;2022-10-01T00:02:05;9.32;;;5.68;;
49860;SDS011;35761;48.826;9.238;2022-10-01T00:04:35;6.70;;;5.13;;
49860;SDS011;35761;48.826;9.238;2022-10-01T00:07:05;10.07;;;4.45;;
49860;SDS011;35761;48.826;9.238;2022-10-01T00:09:36;7.93;;;4.43;;
49860;SDS011;35761;48.826;9.238;2022-10-01T00:12:05;6.32;;;4.88;;
49860;SDS011;35761;48.826;9.238;2022-10-01T00:14:35;10.57;;;5.65;;
49860;SDS011;35761;48.826;9.238;2022-10-01T00:17:04;9.32;;;4.80;;
49860;SDS011;35761;48.826;9.238;2022-10-01T00:19:34;8.55;;;4.60;;
49860;SDS011;35761;48.826;9.238;2022-10-01T00:22:02;9.68;;;4.78;;
49860;SDS011;35761;48.826;9.238;2022-10-01T00:24:31;8.02;;;4.43;;
49860;SDS011;35761;48.826;9.238;2022-10-01T00:26:59;7.53;;;4.65;;
49860;SDS011;35761;48.826;9.238;2022-10-01T00:29:27;8.48;;;4.60;;
49860;SDS011;35761;48.826;9.238;2022-10-01T00:31:57;10.20;;;4.47;;
49860;SDS011;35761;48.826;9.238;2022-10-01T00:34:25;7.07;;;4.35;;
49860;SDS011;35761;48.826;9.238;2022-10-01T00:36:55;12.25;;;4.13;;
49860;SDS011;35761;48.826;9.238;2022-10-01T00:39:23;21.17;;;4.63;;
49860;SDS011;35761;48.826;9.238;2022-10-01T00:41:52;7.13;;;4.10;;
49860;SDS011;35761;48.826;9.238;2022-10-01T00:44:26;7.35;;;5.00;;
49860;SDS011;35761;48.826;9.238;2022-10-01T00:47:01;8.55;;;4.15;;
49860;SDS011;35761;48.826;9.238;2022-10-01T00:49:33;9.85;;;5.97;;
49860;SDS011;35761;48.826;9.238;2022-10-01T00:52:07;8.27;;;4.70;;
49860;SDS011;35761;48.826;9.238;2022-10-01T00:54:41;7.47;;;4.55;;
49860;SDS011;35761;48.826;9.238;2022-10-01T00:57:12;12.13;;;6.72;;
49860;SDS011;35761;48.826;9.238;2022-10-01T00:59:45;14.30;;;6.40;;
49860;SDS011;35761;48.826;9.238;2022-10-01T01:02:15;8.40;;;4.70;;
49860;SDS011;35761;48.826;9.238;2022-10-01T01:04:43;8.75;;;4.70;;
49860;SDS011;35761;48.826;9.238;2022-10-01T01:07:13;11.07;;;4.90;;
49860;SDS011;35761;48.826;9.238;2022-10-01T01:09:42;7.07;;;4.60;;
49860;SDS011;35761;48.826;9.238;2022-10-01T01:12:17;6.57;;;4.50;;
49860;SDS011;35761;48.826;9.238;2022-10-01T01:15:01;10.70;;;4.80;;
49860;SDS011;35761;48.826;9.238;2022-10-01T01:17:43;7.55;;;4.93;;
49860;SDS011;35761;48.826;9.238;2022-10-01T01:20:26;7.13;;;4.50;;
49860;SDS011;35761;48.826;9.238;2022-10-01T01:23:21;7.68;;;4.97;;
49860;SDS011;35761;48.826;9.238;2022-10-01T01:26:17;15.20;;;5.03;;
49860;SDS011;35761;48.826;9.238;2022-10-01T01:28:58;7.13;;;4.40;;
49860;SDS011;35761;48.826;9.238;2022-10-01T01:31:32;7.70;;;4.63;;
49860;SDS011;35761;48.826;9.238;2022-10-01T01:34:06;7.05;;;4.90;;
49860;SDS011;35761;48.826;9.238;2022-10-01T01:36:39;9.05;;;4.85;;
49860;SDS011;35761;48.826;9.238;2022-10-01T01:39:13;8.53;;;4.43;;
49860;SDS011;35761;48.826;9.238;2022-10-01T01:41:44;10.07;;;4.50;;
49860;SDS011;35761;48.826;9.238;2022-10-01T01:44:19;11.23;;;4.40;;
49860;SDS011;35761;48.826;9.238;2022-10-01T01:46:53;7.57;;;4.20;;
49860;SDS011;35761;48.826;9.238;2022-10-01T01:49:23;8.48;;;4.53;;
49860;SDS011;35761;48.826;9.238;2022-10-01T01:51:53;7.88;;;4.88;;
49860;SDS011;35761;48.826;9.238;2022-10-01T01:54:27;8.38;;;4.53;;
49860;SDS011;35761;48.826;9.238;2022-10-01T01:56:56;7.22;;;4.75;;
49860;SDS011;35761;48.826;9.238;2022-10-01T01:59:28;7.88;;;5.05;;
49860;SDS011;35761;48.826;9.238;2022-10-01T02:01:59;9.20;;;4.28;;
49860;SDS011;35761;48.826;9.238;2022-10-01T02:04:29;10.07;;;4.78;;
49860;SDS011;35761;48.826;9.238;2022-10-01T02:07:13;8.50;;;4.90;;
49860;SDS011;35761;48.826;9.238;2022-10-01T02:10:12;10.65;;;5.07;;
49860;SDS011;35761;48.826;9.238;2022-10-01T02:12:57;7.32;;;5.28;;
49860;SDS011;35761;48.826;9.238;2022-10-01T02:15:40;10.20;;;4.63;;
49860;SDS011;35761;48.826;9.238;2022-10-01T02:18:26;7.22;;;4.65;;
49860;SDS011;35761;48.826;9.238;2022-10-01T02:21:03;10.40;;;4.80;;
49860;SDS011;35761;48.826;9.238;2022-10-01T02:23:39;7.32;;;4.80;;
49860;SDS011;35761;48.826;9.238;2022-10-01T02:26:13;9.98;;;4.72;;
49860;SDS011;35761;48.826;9.238;2022-10-01T02:28:45;13.32;;;4.82;;
49860;SDS011;35761;48.826;9.238;2022-10-01T02:31:17;9.98;;;4.38;;
49860;SDS011;35761;48.826;9.238;2022-10-01T02:33:47;9.23;;;4.80;;
49860;SDS011;35761;48.826;9.238;2022-10-01T02:36:17;9.20;;;4.63;;
49860;SDS011;35761;48.826;9.238;2022-10-01T02:38:47;8.40;;;5.32;;
49860;SDS011;35761;48.826;9.238;2022-10-01T02:41:18;8.25;;;4.50;;
49860;SDS011;35761;48.826;9.238;2022-10-01T02:43:54;11.23;;;4.63;;
49860;SDS011;35761;48.826;9.238;2022-10-01T02:46:28;8.88;;;4.57;;
49860;SDS011;35761;48.826;9.238;2022-10-01T02:49:03;9.75;;;4.75;;
49860;SDS011;35761;48.826;9.238;2022-10-01T02:51:33;11.70;;;4.45;;
49860;SDS011;35761;48.826;9.238;2022-10-01T02:54:12;7.10;;;4.70;;
49860;SDS011;35761;48.826;9.238;2022-10-01T02:56:45;6.57;;;3.75;;
49860;SDS011;35761;48.826;9.238;2022-10-01T02:59:31;7.90;;;3.95;;
49860;SDS011;35761;48.826;9.238;2022-10-01T03:02:01;6.63;;;3.35;;
49860;SDS011;35761;48.826;9.238;2022-10-01T03:04:30;6.60;;;3.75;;
49860;SDS011;35761;48.826;9.238;2022-10-01T03:06:58;5.03;;;3.60;;
49860;SDS011;35761;48.826;9.238;2022-10-01T03:09:29;5.97;;;3.50;;
49860;SDS011;35761;48.826;9.238;2022-10-01T03:11:57;6.32;;;3.35;;
49860;SDS011;35761;48.826;9.238;2022-10-01T03:14:26;4.38;;;2.80;;
49860;SDS011;35761;48.826;9.238;2022-10-01T03:16:55;6.45;;;3.28;;
49860;SDS011;35761;48.826;9.238;2022-10-01T03:19:24;4.57;;;2.83;;
49860;SDS011;35761;48.826;9.238;2022-10-01T03:21:53;5.90;;;2.78;;
49860;SDS011;35761;48.826;9.238;2022-10-01T03:24:21;8.45;;;2.83;;
49860;SDS011;35761;48.826;9.238;2022-10-01T03:26:50;7.43;;;3.90;;
49860;SDS011;35761;48.826;9.238;2022-10-01T03:29:18;4.75;;;2.88;;
49860;SDS011;35761;48.826;9.238;2022-10-01T03:31:46;5.30;;;3.00;;
49860;SDS011;35761;48.826;9.238;2022-10-01T03:34:15;3.95;;;2.45;;
49860;SDS011;35761;48.826;9.238;2022-10-01T03:36:44;5.57;;;2.70;;
49860;SDS011;35761;48.826;9.238;2022-10-01T03:39:13;4.97;;;2.85;;
49860;SDS011;35761;48.826;9.238;2022-10-01T03:41:42;4.72;;;2.78;;
49860;SDS011;35761;48.826;9.238;2022-10-01T03:44:10;4.80;;;2.72;;
49860;SDS011;35761;48.826;9.238;2022-10-01T03:46:39;6.45;;;2.95;;
49860;SDS011;35761;48.826;9.238;2022-10-01T03:49:07;4.80;;;3.00;;
49860;SDS011;35761;48.826;9.238;2022-10-01T03:51:36;6.53;;;3.25;;
49860;SDS011;35761;48.826;9.238;2022-10-01T03:54:06;10.25;;;3.78;;
49860;SDS011;35761;48.826;9.238;2022-10-01T03:56:36;8.27;;;3.28;;
49860;SDS011;35761;48.826;9.238;2022-10-01T03:59:06;9.00;;;3.85;;
49860;SDS011;35761;48.826;9.238;2022-10-01T04:01:34;6.32;;;3.42;;
49860;SDS011;35761;48.826;9.238;2022-10-01T04:04:03;7.03;;;3.75;;
49860;SDS011;35761;48.826;9.238;2022-10-01T04:06:32;9.73;;;4.47;;
49860;SDS011;35761;48.826;9.238;2022-10-01T04:09:00;8.10;;;5.40;;
49860;SDS011;35761;48.826;9.238;2022-10-01T04:11:30;8.88;;;6.38;;
49860;SDS011;35761;48.826;9.238;2022-10-01T04:13:59;17.10;;;8.75;;
49860;SDS011;35761;48.826;9.238;2022-10-01T04:16:27;12.77;;;8.88;;
49860;SDS011;35761;48.826;9.238;2022-10-01T04:18:56;13.68;;;9.48;;
49860;SDS011;35761;48.826;9.238;2022-10-01T04:21:24;15.20;;;10.55;;
49860;SDS011;35761;48.826;9.238;2022-10-01T04:23:53;16.25;;;11.63;;
49860;SDS011;35761;48.826;9.238;2022-10-01T04:26:21;18.08;;;11.45;;
49860;SDS011;35761;48.826;9.238;2022-10-01T04:28:51;15.60;;;10.95;;
49860;SDS011;35761;48.826;9.238;2022-10-01T04:31:20;16.35;;;10.75;;
49860;SDS011;35761;48.826;9.238;2022-10-01T04:33:51;19.85;;;9.90;;
49860;SDS011;35761;48.826;9.238;2022-10-01T04:36:21;15.30;;;7.82;;
49860;SDS011;35761;48.826;9.238;2022-10-01T04:38:50;15.45;;;9.52;;
49860;SDS011;35761;48.826;9.238;2022-10-01T04:41:23;16.70;;;9.80;;
49860;SDS011;35761;48.826;9.238;2022-10-01T04:43:53;10.77;;;6.20;;
49860;SDS011;35761;48.826;9.238;2022-10-01T04:46:21;9.68;;;6.47;;
49860;SDS011;35761;48.826;9.238;2022-10-01T04:48:49;9.40;;;4.93;;
49860;SDS011;35761;48.826;9.238;2022-10-01T04:51:18;10.32;;;4.43;;
49860;SDS011;35761;48.826;9.238;2022-10-01T04:53:46;6.78;;;4.03;;
49860;SDS011;35761;48.826;9.238;2022-10-01T04:56:14;8.25;;;3.95;;
49860;SDS011;35761;48.826;9.238;2022-10-01T04:58:43;8.23;;;3.97;;
49860;SDS011;35761;48.826;9.238;2022-10-01T05:01:12;5.18;;;3.08;;
49860;SDS011;35761;48.826;9.238;2022-10-01T05:03:41;8.85;;;2.95;;
49860;SDS011;35761;48.826;9.238;2022-10-01T05:06:09;6.65;;;3.13;;
49860;SDS011;35761;48.826;9.238;2022-10-01T05:08:37;5.97;;;2.65;;
49860;SDS011;35761;48.826;9.238;2022-10-01T05:11:06;6.32;;;2.30;;
49860;SDS011;35761;48.826;9.238;2022-10-01T05:13:34;4.22;;;2.50;;
49860;SDS011;35761;48.826;9.238;2022-10-01T05:16:03;5.75;;;2.63;;
49860;SDS011;35761;48.826;9.238;2022-10-01T05:18:33;4.65;;;2.60;;
49860;SDS011;35761;48.826;9.238;2022-10-01T05:21:05;7.25;;;2.60;;
49860;SDS011;35761;48.826;9.238;2022-10-01T05:23:35;4.93;;;2.80;;
49860;SDS011;35761;48.826;9.238;2022-10-01T05:26:04;8.05;;;3.13;;
49860;SDS011;35761;48.826;9.238;2022-10-01T05:28:33;5.18;;;2.63;;
49860;SDS011;35761;48.826;9.238;2022-10-01T05:31:02;6.53;;;2.75;;
49860;SDS011;35761;48.826;9.238;2022-10-01T05:33:31;9.52;;;2.97;;
49860;SDS011;35761;48.826;9.238;2022-10-01T05:36:01;5.10;;;2.85;;
49860;SDS011;35761;48.826;9.238;2022-10-01T05:38:30;8.45;;;2.95;;
49860;SDS011;35761;48.826;9.238;2022-10-01T05:41:01;6.65;;;2.50;;
49860;SDS011;35761;48.826;9.238;2022-10-01T05:43:30;5.38;;;2.72;;
49860;SDS011;35761;48.826;9.238;2022-10-01T05:46:03;5.30;;;2.38;;
49860;SDS011;35761;48.826;9.238;2022-10-01T05:48:33;5.35;;;2.05;;
49860;SDS011;35761;48.826;9.238;2022-10-01T05:51:02;7.40;;;3.67;;
49860;SDS011;35761;48.826;9.238;2022-10-01T05:53:33;3.60;;;2.00;;
49860;SDS011;35761;48.826;9.238;2022-10-01T05:56:03;5.15;;;1.85;;
49860;SDS011;35761;48.826;9.238;2022-10-01T05:58:33;4.70;;;2.28;;
49860;SDS011;35761;48.826;9.238;2022-10-01T06:01:02;6.53;;;2.10;;
49860;SDS011;35761;48.826;9.238;2022-10-01T06:03:31;4.93;;;2.25;;
49860;SDS011;35761;48.826;9.238;2022-10-01T06:06:01;4.20;;;2.30;;
49860;SDS011;35761;48.826;9.238;2022-10-01T06:08:32;4.57;;;2.53;;
49860;SDS011;35761;48.826;9.238;2022-10-01T06:11:01;6.03;;;3.05;;
49860;SDS011;35761;48.826;9.238;2022-10-01T06:13:30;6.25;;;2.78;;
49860;SDS011;35761;48.826;9.238;2022-10-01T06:15:58;5.85;;;2.30;;
49860;SDS011;35761;48.826;9.238;2022-10-01T06:18:27;5.28;;;2.47;;
49860;SDS011;35761;48.826;9.238;2022-10-01T06:20:58;5.22;;;2.30;;
49860;SDS011;35761;48.826;9.238;2022-10-01T06:23:27;10.55;;;2.30;;
49860;SDS011;35761;48.826;9.238;2022-10-01T06:25:57;6.95;;;2.42;;
49860;SDS011;35761;48.826;9.238;2022-10-01T06:28:26;3.60;;;1.80;;
49860;SDS011;35761;48.826;9.238;2022-10-01T06:30:55;5.90;;;3.17;;
49860;SDS011;35761;48.826;9.238;2022-10-01T06:33:23;8.63;;;2.70;;
49860;SDS011;35761;48.826;9.238;2022-10-01T06:35:52;5.72;;;1.65;;
49860;SDS011;35761;48.826;9.238;2022-10-01T06:38:23;3.13;;;1.60;;
49860;SDS011;35761;48.826;9.238;2022-10-01T06:40:52;7.75;;;1.77;;
49860;SDS011;35761;48.826;9.238;2022-10-01T06:43:22;3.72;;;1.40;;
49860;SDS011;35761;48.826;9.238;2022-10-01T06:45:53;3.40;;;1.60;;
49860;SDS011;35761;48.826;9.238;2022-10-01T06:48:22;5.45;;;1.70;;
49860;SDS011;35761;48.826;9.238;2022-10-01T06:50:54;2.53;;;1.40;;
49860;SDS011;35761;48.826;9.238;2022-10-01T06:53:25;2.33;;;1.60;;
49860;SDS011;35761;48.826;9.238;2022-10-01T06:55:54;5.60;;;2.92;;
49860;SDS011;35761;48.826;9.238;2022-10-01T06:58:23;2.08;;;1.33;;
49860;SDS011;35761;48.826;9.238;2022-10-01T07:00:56;3.17;;;1.75;;
49860;SDS011;35761;48.826;9.238;2022-10-01T07:03:27;2.70;;;1.47;;
49860;SDS011;35761;48.826;9.238;2022-10-01T07:06:00;2.83;;;1.60;;
49860;SDS011;35761;48.826;9.238;2022-10-01T07:08:31;12.23;;;9.48;;
49860;SDS011;35761;48.826;9.238;2022-10-01T07:11:00;2.65;;;1.48;;
49860;SDS011;35761;48.826;9.238;2022-10-01T07:13:29;12.55;;;1.73;;
49860;SDS011;35761;48.826;9.238;2022-10-01T07:15:57;5.40;;;1.45;;
49860;SDS011;35761;48.826;9.238;2022-10-01T07:18:26;4.35;;;1.77;;
49860;SDS011;35761;48.826;9.238;2022-10-01T07:20:55;3.97;;;1.75;;
49860;SDS011;35761;48.826;9.238;2022-10-01T07:23:23;3.53;;;1.90;;
49860;SDS011;35761;48.826;9.238;2022-10-01T07:25:53;5.50;;;2.10;;
49860;SDS011;35761;48.826;9.238;2022-10-01T07:28:21;3.15;;;1.80;;
49860;SDS011;35761;48.826;9.238;2022-10-01T07:30:58;4.95;;;1.90;;
49860;SDS011;35761;48.826;9.238;2022-10-01T07:33:28;5.30;;;2.03;;
49860;SDS011;35761;48.826;9.238;2022-10-01T07:35:58;3.15;;;1.63;;
49860;SDS011;35761;48.826;9.238;2022-10-01T07:38:28;3.30;;;1.63;;
49860;SDS011;35761;48.826;9.238;2022-10-01T07:41:00;3.72;;;1.63;;
49860;SDS011;35761;48.826;9.238;2022-10-01T07:43:30;4.82;;;1.83;;
49860;SDS011;35761;48.826;9.238;2022-10-01T07:46:00;4.80;;;1.83;;
49860;SDS011;35761;48.826;9.238;2022-10-01T07:48:29;3.70;;;1.80;;
49860;SDS011;35761;48.826;9.238;2022-10-01T07:50:57;3.33;;;1.50;;
49860;SDS011;35761;48.826;9.238;2022-10-01T07:53:26;3.70;;;1.63;;
49860;SDS011;35761;48.826;9.238;2022-10-01T07:55:54;5.60;;;1.77;;
49860;SDS011;35761;48.826;9.238;2022-10-01T07:58:24;9.32;;;4.72;;
49860;SDS011;35761;48.826;9.238;2022-10-01T08:00:53;5.32;;;1.80;;
49860;SDS011;35761;48.826;9.238;2022-10-01T08:03:24;3.95;;;1.90;;
49860;SDS011;35761;48.826;9.238;2022-10-01T08:05:52;3.88;;;1.70;;
49860;SDS011;35761;48.826;9.238;2022-10-01T08:08:21;2.58;;;1.70;;
49860;SDS011;35761;48.826;9.238;2022-10-01T08:10:49;3.28;;;1.65;;
49860;SDS011;35761;48.826;9.238;2022-10-01T08:13:18;4.38;;;1.80;;
49860;SDS011;35761;48.826;9.238;2022-10-01T08:15:51;5.35;;;2.00;;
49860;SDS011;35761;48.826;9.238;2022-10-01T08:18:20;12.50;;;6.47;;
49860;SDS011;35761;48.826;9.238;2022-10-01T08:20:49;5.30;;;2.53;;
49860;SDS011;35761;48.826;9.238;2022-10-01T08:23:18;6.10;;;1.90;;
49860;SDS011;35761;48.826;9.238;2022-10-01T08:25:47;5.85;;;1.60;;
49860;SDS011;35761;48.826;9.238;2022-10-01T08:28:15;5.40;;;1.80;;
49860;SDS011;35761;48.826;9.238;2022-10-01T08:30:44;3.80;;;2.08;;
49860;SDS011;35761;48.826;9.238;2022-10-01T08:33:13;11.70;;;6.32;;
49860;SDS011;35761;48.826;9.238;2022-10-01T08:35:42;7.68;;;2.65;;
49860;SDS011;35761;48.826;9.238;2022-10-01T08:38:11;3.42;;;2.15;;
49860;SDS011;35761;48.826;9.238;2022-10-01T08:40:40;3.72;;;1.80;;
49860;SDS011;35761;48.826;9.238;2022-10-01T08:43:19;5.50;;;1.90;;
49860;SDS011;35761;48.826;9.238;2022-10-01T08:46:02;4.25;;;1.75;;
49860;SDS011;35761;48.826;9.238;2022-10-01T08:48:42;2.92;;;1.52;;
49860;SDS011;35761;48.826;9.238;2022-10-01T08:51:24;5.10;;;1.90;;
49860;SDS011;35761;48.826;9.238;2022-10-01T08:53:59;5.05;;;1.70;;
49860;SDS011;35761;48.826;9.238;2022-10-01T08:56:38;3.80;;;2.15;;
49860;SDS011;35761;48.826;9.238;2022-10-01T08:59:12;4.38;;;1.90;;
49860;SDS011;35761;48.826;9.238;2022-10-01T09:01:55;3.55;;;1.70;;
49860;SDS011;35761;48.826;9.238;2022-10-01T09:04:26;8.45;;;4.20;;
49860;SDS011;35761;48.826;9.238;2022-10-01T09:06:57;3.97;;;1.88;;
49860;SDS011;35761;48.826;9.238;2022-10-01T09:09:37;6.25;;;1.80;;
49860;SDS011;35761;48.826;9.238;2022-10-01T09:12:15;4.00;;;1.90;;
49860;SDS011;35761;48.826;9.238;2022-10-01T09:14:59;5.13;;;1.70;;
49860;SDS011;35761;48.826;9.238;2022-10-01T09:17:46;2.95;;;1.90;;
49860;SDS011;35761;48.826;9.238;2022-10-01T09:20:30;2.53;;;1.63;;
49860;SDS011;35761;48.826;9.238;2022-10-01T09:23:06;4.88;;;1.73;;
49860;SDS011;35761;48.826;9.238;2022-10-01T09:25:47;7.38;;;1.85;;
49860;SDS011;35761;48.826;9.238;2022-10-01T09:28:18;6.38;;;1.60;;
49860;SDS011;35761;48.826;9.238;2022-10-01T09:30:51;6.80;;;1.70;;
49860;SDS011;35761;48.826;9.238;2022-10-01T09:33:24;3.22;;;1.70;;
49860;SDS011;35761;48.826;9.238;2022-10-01T09:36:03;3.28;;;1.85;;
49860;SDS011;35761;48.826;9.238;2022-10-01T09:38:40;2.92;;;1.60;;
49860;SDS011;35761;48.826;9.238;2022-10-01T09:41:10;4.20;;;2.25;;
49860;SDS011;35761;48.826;9.238;2022-10-01T09:43:41;4.43;;;1.70;;
49860;SDS011;35761;48.826;9.238;2022-10-01T09:46:11;5.90;;;2.22;;
49860;SDS011;35761;48.826;9.238;2022-10-01T09:48:44;5.15;;;1.63;;
49860;SDS011;35761;48.826;9.238;2022-10-01T09:51:25;3.08;;;1.70;;
49860;SDS011;35761;48.826;9.238;2022-10-01T09:54:08;3.85;;;1.80;;
49860;SDS011;35761;48.826;9.238;2022-10-01T09:56:43;3.67;;;1.80;;
49860;SDS011;35761;48.826;9.238;2022-10-01T09:59:21;2.97;;;1.92;;
49860;SDS011;35761;48.826;9.238;2022-10-01T10:01:56;1.27;;;1.10;;
49860;SDS011;35761;48.826;9.238;2022-10-01T10:04:28;3.05;;;1.77;;
49860;SDS011;35761;48.826;9.238;2022-10-01T10:07:01;5.18;;;1.90;;
49860;SDS011;35761;48.826;9.238;2022-10-01T10:09:31;2.65;;;1.60;;
49860;SDS011;35761;48.826;9.238;2022-10-01T10:12:02;3.17;;;1.70;;
49860;SDS011;35761;48.826;9.238;2022-10-01T10:14:34;3.03;;;1.55;;
49860;SDS011;35761;48.826;9.238;2022-10-01T10:17:06;2.50;;;1.50;;
49860;SDS011;35761;48.826;9.238;2022-10-01T10:19:44;2.65;;;1.40;;
49860;SDS011;35761;48.826;9.238;2022-10-01T10:22:20;2.50;;;1.33;;
49860;SDS011;35761;48.826;9.238;2022-10-01T10:24:51;3.07;;;1.50;;
49860;SDS011;35761;48.826;9.238;2022-10-01T10:27:23;2.10;;;1.02;;
49860;SDS011;35761;48.826;9.238;2022-10-01T10:30:01;1.30;;;1.00;;
49860;SDS011;35761;48.826;9.238;2022-10-01T10:32:34;4.95;;;1.30;;
49860;SDS011;35761;48.826;9.238;2022-10-01T10:35:02;3.05;;;1.23;;
49860;SDS011;35761;48.826;9.238;2022-10-01T10:37:41;7.03;;;1.52;;
49860;SDS011;35761;48.826;9.238;2022-10-01T10:40:15;1.92;;;1.23;;
49860;SDS011;35761;48.826;9.238;2022-10-01T10:42:46;4.95;;;1.50;;
49860;SDS011;35761;48.826;9.238;2022-10-01T10:45:16;2.05;;;1.10;;
49860;SDS011;35761;48.826;9.238;2022-10-01T10:47:48;3.13;;;1.00;;
49860;SDS011;35761;48.826;9.238;2022-10-01T10:50:29;2.95;;;1.40;;
49860;SDS011;35761;48.826;9.238;2022-10-01T10:53:12;2.70;;;1.38;;
49860;SDS011;35761;48.826;9.238;2022-10-01T10:55:54;0.73;;;0.73;;
49860;SDS011;35761;48.826;9.238;2022-10-01T10:58:27;3.50;;;0.85;;
49860;SDS011;35761;48.826;9.238;2022-10-01T11:00:59;2.58;;;0.90;;
49860;SDS011;35761;48.826;9.238;2022-10-01T11:03:32;2.13;;;0.85;;
49860;SDS011;35761;48.826;9.238;2022-10-01T11:06:08;0.98;;;0.52;;
49860;SDS011;35761;48.826;9.238;2022-10-01T11:08:41;2.40;;;0.68;;
49860;SDS011;35761;48.826;9.238;2022-10-01T11:11:15;1.40;;;0.75;;
49860;SDS011;35761;48.826;9.238;2022-10-01T11:14:01;1.00;;;0.77;;
49860;SDS011;35761;48.826;9.238;2022-10-01T11:17:02;1.58;;;0.88;;
49860;SDS011;35761;48.826;9.238;2022-10-01T11:19:55;5.15;;;0.95;;
49860;SDS011;35761;48.826;9.238;2022-10-01T11:22:48;2.35;;;0.73;;
49860;SDS011;35761;48.826;9.238;2022-10-01T11:25:33;2.38;;;0.82;;
49860;SDS011;35761;48.826;9.238;2022-10-01T11:28:16;1.23;;;0.80;;
49860;SDS011;35761;48.826;9.238;2022-10-01T11:31:01;1.02;;;0.80;;
49860;SDS011;35761;48.826;9.238;2022-10-01T11:33:39;1.67;;;0.70;;
49860;SDS011;35761;48.826;9.238;2022-10-01T11:36:25;1.30;;;0.88;;
49860;SDS011;35761;48.826;9.238;2022-10-01T11:38:58;1.50;;;0.80;;
49860;SDS011;35761;48.826;9.238;2022-10-01T11:41:33;1.50;;;0.80;;
49860;SDS011;35761;48.826;9.238;2022-10-01T11:44:05;1.17;;;0.75;;
49860;SDS011;35761;48.826;9.238;2022-10-01T11:46:49;1.20;;;0.98;;
49860;SDS011;35761;48.826;9.238;2022-10-01T11:49:30;3.88;;;2.42;;
49860;SDS011;35761;48.826;9.238;2022-10-01T11:52:17;1.70;;;0.90;;
49860;SDS011;35761;48.826;9.238;2022-10-01T11:55:13;2.65;;;0.70;;
49860;SDS011;35761;48.826;9.238;2022-10-01T11:58:06;1.70;;;0.60;;
49860;SDS011;35761;48.826;9.238;2022-10-01T12:01:02;3.17;;;0.77;;
49860;SDS011;35761;48.826;9.238;2022-10-01T12:03:41;2.05;;;0.80;;
49860;SDS011;35761;48.826;9.238;2022-10-01T12:06:21;1.13;;;0.70;;
49860;SDS011;35761;48.826;9.238;2022-10-01T12:09:00;3.35;;;1.25;;
49860;SDS011;35761;48.826;9.238;2022-10-01T12:11:36;2.22;;;0.80;;
49860;SDS011;35761;48.826;9.238;2022-10-01T12:14:12;1.50;;;0.63;;
49860;SDS011;35761;48.826;9.238;2022-10-01T12:16:47;13.32;;;7.50;;
49860;SDS011;35761;48.826;9.238;2022-10-01T12:19:22;4.57;;;3.05;;
49860;SDS011;35761;48.826;9.238;2022-10-01T12:21:55;1.30;;;0.73;;
49860;SDS011;35761;48.826;9.238;2022-10-01T12:24:28;2.10;;;0.70;;
49860;SDS011;35761;48.826;9.238;2022-10-01T12:27:05;1.35;;;0.60;;
49860;SDS011;35761;48.826;9.238;2022-10-01T12:29:56;2.83;;;0.70;;
49860;SDS011;35761;48.826;9.238;2022-10-01T12:32:32;2.50;;;1.17;;
49860;SDS011;35761;48.826;9.238;2022-10-01T12:35:18;1.70;;;0.90;;
49860;SDS011;35761;48.826;9.238;2022-10-01T12:38:05;0.80;;;0.52;;
49860;SDS011;35761;48.826;9.238;2022-10-01T12:40:47;1.20;;;0.80;;
49860;SDS011;35761;48.826;9.238;2022-10-01T12:43:27;2.75;;;0.50;;
49860;SDS011;35761;48.826;9.238;2022-10-01T12:46:15;1.13;;;0.68;;
49860;SDS011;35761;48.826;9.238;2022-10-01T12:48:55;1.00;;;0.88;;
49860;SDS011;35761;48.826;9.238;2022-10-01T12:51:36;0.85;;;0.65;;
49860;SDS011;35761;48.826;9.238;2022-10-01T12:56:52;1.67;;;0.98;;
49860;SDS011;35761;48.826;9.238;2022-10-01T12:59:33;2.33;;;0.90;;
49860;SDS011;35761;48.826;9.238;2022-10-01T13:02:18;1.85;;;0.90;;
49860;SDS011;35761;48.826;9.238;2022-10-01T13:05:12;3.28;;;1.10;;
49860;SDS011;35761;48.826;9.238;2022-10-01T13:07:51;1.75;;;1.08;;
49860;SDS011;35761;48.826;9.238;2022-10-01T13:10:46;1.50;;;0.90;;
49860;SDS011;35761;48.826;9.238;2022-10-01T13:13:23;1.30;;;0.90;;
49860;SDS011;35761;48.826;9.238;2022-10-01T13:16:01;2.25;;;1.05;;
49860;SDS011;35761;48.826;9.238;2022-10-01T13:18:43;1.63;;;1.10;;
49860;SDS011;35761;48.826;9.238;2022-10-01T13:21:24;2.40;;;1.02;;
49860;SDS011;35761;48.826;9.238;2022-10-01T13:24:03;3.85;;;1.00;;
49860;SDS011;35761;48.826;9.238;2022-10-01T13:26:41;1.30;;;0.95;;
49860;SDS011;35761;48.826;9.238;2022-10-01T13:29:18;1.65;;;1.00;;
49860;SDS011;35761;48.826;9.238;2022-10-01T13:31:58;1.23;;;0.55;;
49860;SDS011;35761;48.826;9.238;2022-10-01T13:34:37;1.63;;;0.88;;
49860;SDS011;35761;48.826;9.238;2022-10-01T13:37:08;1.45;;;0.90;;
49860;SDS011;35761;48.826;9.238;2022-10-01T13:39:39;1.42;;;0.68;;
49860;SDS011;35761;48.826;9.238;2022-10-01T13:44:51;1.10;;;0.80;;
49860;SDS011;35761;48.826;9.238;2022-10-01T13:47:23;2.10;;;0.90;;
49860;SDS011;35761;48.826;9.238;2022-10-01T13:49:54;2.20;;;1.10;;
49860;SDS011;35761;48.826;9.238;2022-10-01T13:52:26;3.00;;;1.00;;
49860;SDS011;35761;48.826;9.238;2022-10-01T13:54:54;1.55;;;0.80;;
49860;SDS011;35761;48.826;9.238;2022-10-01T13:57:26;0.85;;;0.80;;
49860;SDS011;35761;48.826;9.238;2022-10-01T13:59:59;1.40;;;0.93;;
49860;SDS011;35761;48.826;9.238;2022-10-01T14:02:56;1.30;;;0.88;;
49860;SDS011;35761;48.826;9.238;2022-10-01T14:05:37;1.48;;;0.82;;
49860;SDS011;35761;48.826;9.238;2022-10-01T14:08:12;2.80;;;0.60;;
49860;SDS011;35761;48.826;9.238;2022-10-01T14:10:51;2.00;;;0.93;;
49860;SDS011;35761;48.826;9.238;2022-10-01T14:13:41;2.65;;;0.77;;
49860;SDS011;35761;48.826;9.238;2022-10-01T14:16:34;2.15;;;0.80;;
49860;SDS011;35761;48.826;9.238;2022-10-01T14:19:05;2.25;;;1.00;;
49860;SDS011;35761;48.826;9.238;2022-10-01T14:21:40;2.40;;;0.80;;
49860;SDS011;35761;48.826;9.238;2022-10-01T14:24:21;1.08;;;0.57;;
49860;SDS011;35761;48.826;9.238;2022-10-01T14:26:59;4.32;;;0.70;;
49860;SDS011;35761;48.826;9.238;2022-10-01T14:29:39;1.55;;;0.60;;
49860;SDS011;35761;48.826;9.238;2022-10-01T14:32:22;1.35;;;0.65;;
49860;SDS011;35761;48.826;9.238;2022-10-01T14:35:06;1.60;;;0.70;;
49860;SDS011;35761;48.826;9.238;2022-10-01T14:37:57;4.80;;;1.05;;
49860;SDS011;35761;48.826;9.238;2022-10-01T14:40:33;1.70;;;0.65;;
49860;SDS011;35761;48.826;9.238;2022-10-01T14:43:12;1.25;;;0.50;;
49860;SDS011;35761;48.826;9.238;2022-10-01T14:45:51;2.47;;;0.73;;
49860;SDS011;35761;48.826;9.238;2022-10-01T14:48:22;2.75;;;0.50;;
49860;SDS011;35761;48.826;9.238;2022-10-01T14:50:55;1.85;;;0.55;;
49860;SDS011;35761;48.826;9.238;2022-10-01T14:53:28;2.17;;;0.70;;
49860;SDS011;35761;48.826;9.238;2022-10-01T14:56:00;4.43;;;0.95;;
49860;SDS011;35761;48.826;9.238;2022-10-01T14:58:34;1.98;;;0.70;;
49860;SDS011;35761;48.826;9.238;2022-10-01T15:01:06;3.40;;;1.05;;
49860;SDS011;35761;48.826;9.238;2022-10-01T15:03:43;1.10;;;0.55;;
49860;SDS011;35761;48.826;9.238;2022-10-01T15:06:14;1.45;;;0.73;;
49860;SDS011;35761;48.826;9.238;2022-10-01T15:08:46;3.88;;;0.93;;
49860;SDS011;35761;48.826;9.238;2022-10-01T15:11:17;1.90;;;0.55;;
49860;SDS011;35761;48.826;9.238;2022-10-01T15:13:49;4.53;;;0.70;;
49860;SDS011;35761;48.826;9.238;2022-10-01T15:16:20;1.13;;;0.50;;
49860;SDS011;35761;48.826;9.238;2022-10-01T15:18:51;1.05;;;0.50;;
49860;SDS011;35761;48.826;9.238;2022-10-01T15:21:23;2.35;;;0.70;;
49860;SDS011;35761;48.826;9.238;2022-10-01T15:23:58;0.40;;;0.30;;
49860;SDS011;35761;48.826;9.238;2022-10-01T15:26:30;2.60;;;0.43;;
49860;SDS011;35761;48.826;9.238;2022-10-01T15:29:00;5.40;;;0.98;;
49860;SDS011;35761;48.826;9.238;2022-10-01T15:31:30;1.77;;;0.50;;